Time;durP1;ratioP1;P1;durP2;ratioP2;P2;SDS_P1;SDS_P2;PMS_P1;PMS_P2;Temp;Humidity;BMP_temperature;BMP_pressure;BME280_temperature;BME280_humidity;BME280_pressure;Samples;Min_cycle;Max_cycle;Signal;HPM_P1;HPM_P2
2022/11/26 00:01:47;;;;;;;3.27;2.97;;;8.20;99.90;;;;;;6169052;23;20402;-77
2022/11/26 00:04:15;;;;;;;0.50;0.10;;;8.20;99.90;;;;;;6176161;23;20420;-77
2022/11/26 00:06:44;;;;;;;0.50;0.10;;;8.20;99.90;;;;;;6174617;23;20423;-77
2022/11/26 00:09:18;;;;;;;0.80;0.70;;;8.20;99.90;;;;;;6166553;23;20543;-77
2022/11/26 00:11:46;;;;;;;0.50;0.20;;;8.30;99.90;;;;;;6165035;23;20196;-78
2022/11/26 00:14:17;;;;;;;0.50;0.10;;;8.40;99.90;;;;;;6161606;23;20412;-77
2022/11/26 00:16:45;;;;;;;0.50;0.10;;;8.40;99.90;;;;;;6166925;23;20397;-76
2022/11/26 00:19:13;;;;;;;0.50;0.10;;;8.40;99.90;;;;;;6170077;23;20393;-77
2022/11/26 00:22:03;;;;;;;0.60;0.40;;;;;;;;;;6169124;23;20401;-79
2022/11/26 00:24:33;;;;;;;0.53;0.10;;;8.30;99.90;;;;;;6167466;23;20401;-76
2022/11/26 00:27:02;;;;;;;0.50;0.10;;;8.20;99.90;;;;;;6165269;23;20423;-76
2022/11/26 00:29:31;;;;;;;0.50;0.10;;;8.20;99.90;;;;;;6169545;23;20413;-77
2022/11/26 00:31:59;;;;;;;0.50;0.20;;;9.20;99.90;;;;;;6172649;23;20441;-77
2022/11/26 00:34:27;;;;;;;0.50;0.20;;;8.20;99.90;;;;;;6169388;23;20429;-77
2022/11/26 00:36:55;;;;;;;0.50;0.10;;;8.20;99.90;;;;;;6165747;23;20405;-77
2022/11/26 00:39:24;;;;;;;0.50;0.10;;;8.20;99.90;;;;;;6167516;23;20417;-78
2022/11/26 00:41:53;;;;;;;0.50;0.10;;;8.20;99.90;;;;;;6165414;23;20718;-77
2022/11/26 00:44:22;;;;;;;0.50;0.10;;;8.20;99.90;;;;;;6168605;23;20452;-76
2022/11/26 00:46:52;;;;;;;0.50;0.10;;;8.30;99.90;;;;;;6169552;23;20401;-77
2022/11/26 00:49:20;;;;;;;0.50;0.20;;;8.30;99.90;;;;;;6168086;23;20771;-76
2022/11/26 00:51:48;;;;;;;0.50;0.10;;;8.30;99.90;;;;;;6166070;23;20409;-77
2022/11/26 00:54:19;;;;;;;0.50;0.10;;;8.30;99.90;;;;;;6167112;23;20405;-76
2022/11/26 00:56:47;;;;;;;0.50;0.10;;;8.30;99.90;;;;;;6166075;23;20489;-76
2022/11/26 00:59:22;;;;;;;0.50;0.10;;;8.30;99.90;;;;;;6164802;23;20977;-77
2022/11/26 05:02:43;;;;;;;0.60;0.33;;;;;;;;;;6123239;23;20536;-74
2022/11/26 05:05:13;;;;;;;0.50;0.10;;;7.10;99.90;;;;;;6141578;23;20378;-72
2022/11/26 05:07:40;;;;;;;0.50;0.10;;;7.10;99.90;;;;;;6133716;23;20405;-73
2022/11/26 05:10:11;;;;;;;0.50;0.10;;;7.10;99.90;;;;;;6140011;23;20405;-72
2022/11/26 05:12:39;;;;;;;0.50;0.10;;;7.10;99.90;;;;;;6137943;23;20452;-73
2022/11/26 05:15:07;;;;;;;0.50;0.20;;;;;;;;;;6139327;23;20520;-74
2022/11/26 05:17:35;;;;;;;0.50;0.10;;;7.10;99.90;;;;;;6154412;23;20407;-74
2022/11/26 05:20:06;;;;;;;0.50;0.10;;;7.10;99.90;;;;;;6154239;23;20405;-75
2022/11/26 05:22:34;;;;;;;0.50;0.20;;;7.10;99.90;;;;;;6154279;23;20447;-75
2022/11/26 05:25:01;;;;;;;0.57;0.30;;;7.00;99.90;;;;;;6154622;23;20758;-74
2022/11/26 05:27:29;;;;;;;0.50;0.10;;;7.00;99.90;;;;;;6155026;23;20714;-73
2022/11/26 05:29:57;;;;;;;0.50;0.10;;;7.00;99.90;;;;;;6154425;23;20408;-73
2022/11/26 05:32:25;;;;;;;0.60;0.50;;;7.00;99.90;;;;;;6154459;23;20440;-73
2022/11/26 05:34:52;;;;;;;1.07;1.03;;;7.00;99.90;;;;;;6155188;23;20421;-74
2022/11/26 05:37:28;;;;;;;0.50;0.10;;;7.00;99.90;;;;;;6155742;23;20385;-74
2022/11/26 05:39:55;;;;;;;0.50;0.10;;;6.90;99.90;;;;;;6154644;23;20408;-75
2022/11/26 05:42:23;;;;;;;0.50;0.10;;;6.80;99.90;;;;;;6154837;23;20424;-73
2022/11/26 05:44:51;;;;;;;0.50;0.20;;;6.90;99.90;;;;;;6155252;23;20429;-71
2022/11/26 05:47:19;;;;;;;0.50;0.10;;;6.90;99.90;;;;;;6154562;23;20420;-75
2022/11/26 05:49:47;;;;;;;0.50;0.10;;;6.90;99.90;;;;;;6155973;23;20455;-74
2022/11/26 05:52:14;;;;;;;0.50;0.20;;;8.70;99.90;;;;;;6154727;23;20413;-74
2022/11/26 05:54:43;;;;;;;0.50;0.10;;;6.90;99.90;;;;;;6155333;23;20405;-73
2022/11/26 05:57:11;;;;;;;0.50;0.10;;;6.90;99.90;;;;;;6155469;23;20901;-73
2022/11/26 05:59:39;;;;;;;0.50;0.10;;;6.90;99.90;;;;;;6155268;23;20409;-74
2022/11/26 06:02:07;;;;;;;14.17;0.77;;;6.90;99.90;;;;;;6154851;23;20404;-74
2022/11/26 06:04:34;;;;;;;0.50;0.10;;;6.90;99.90;;;;;;6155796;23;20404;-74
2022/11/26 06:07:03;;;;;;;0.50;0.10;;;6.90;99.90;;;;;;6155741;23;20405;-74
2022/11/26 06:09:31;;;;;;;0.50;0.10;;;6.80;99.90;;;;;;6156370;23;20408;-74
2022/11/26 06:12:00;;;;;;;0.60;0.40;;;6.80;99.90;;;;;;6155437;23;20779;-74
2022/11/26 06:14:28;;;;;;;0.50;0.10;;;6.60;99.90;;;;;;6155008;23;20444;-73
2022/11/26 06:16:56;;;;;;;0.50;0.10;;;6.60;99.90;;;;;;6154716;23;20405;-74
2022/11/26 06:19:24;;;;;;;0.50;0.10;;;6.60;99.90;;;;;;6154650;23;20412;-76
2022/11/26 06:21:51;;;;;;;0.50;0.10;;;6.60;99.90;;;;;;6157244;23;20475;-75
2022/11/26 06:24:19;;;;;;;0.50;0.10;;;6.60;99.90;;;;;;6160462;23;20624;-74
2022/11/26 06:26:47;;;;;;;0.50;0.10;;;6.60;99.90;;;;;;6159400;23;20909;-75
2022/11/26 06:29:16;;;;;;;0.50;0.10;;;6.60;99.90;;;;;;6155229;23;20401;-74
2022/11/26 06:31:44;;;;;;;0.50;0.10;;;6.60;99.90;;;;;;6154899;23;20960;-75
2022/11/26 06:34:12;;;;;;;0.50;0.20;;;6.60;99.90;;;;;;6156437;23;20488;-75
2022/11/26 06:36:40;;;;;;;0.50;0.10;;;6.60;99.90;;;;;;6157024;23;20428;-75
2022/11/26 06:39:08;;;;;;;0.50;0.10;;;6.60;99.90;;;;;;6156778;23;20469;-74
2022/11/26 06:41:36;;;;;;;0.50;0.10;;;6.60;99.90;;;;;;6156244;23;20917;-75
2022/11/26 06:44:05;;;;;;;1.03;0.53;;;6.60;99.90;;;;;;6156790;23;20408;-75
2022/11/26 06:46:35;;;;;;;2.40;0.60;;;6.60;99.90;;;;;;6156883;23;20425;-75
2022/11/26 06:49:04;;;;;;;0.50;0.10;;;6.60;99.90;;;;;;6156890;23;20897;-74
2022/11/26 06:51:33;;;;;;;0.60;0.37;;;6.50;99.90;;;;;;6157096;23;20405;-73
2022/11/26 06:54:01;;;;;;;0.50;0.10;;;6.40;99.90;;;;;;6155896;23;20947;-73
2022/11/26 06:56:28;;;;;;;0.80;0.60;;;6.20;99.90;;;;;;6156020;23;20429;-74
2022/11/26 06:58:56;;;;;;;0.50;0.10;;;6.20;99.90;;;;;;6156299;23;20401;-76
2022/11/26 07:01:25;;;;;;;0.50;0.30;;;6.20;99.90;;;;;;6156495;23;20393;-74
2022/11/26 07:03:55;;;;;;;0.50;0.10;;;6.20;99.90;;;;;;6155706;23;20401;-74
2022/11/26 07:06:24;;;;;;;0.50;0.10;;;6.30;99.90;;;;;;6156342;23;20448;-75
2022/11/26 07:08:55;;;;;;;0.50;0.20;;;6.30;99.90;;;;;;6158784;23;20408;-74
2022/11/26 07:11:24;;;;;;;0.50;0.10;;;6.40;99.90;;;;;;6156968;23;20448;-74
2022/11/26 07:13:52;;;;;;;0.50;0.10;;;6.40;99.90;;;;;;6160480;23;20447;-72
2022/11/26 07:16:20;;;;;;;0.50;0.10;;;6.50;99.90;;;;;;6156404;23;20459;-74
2022/11/26 07:18:49;;;;;;;0.50;0.10;;;6.50;99.90;;;;;;6157030;23;20419;-72
2022/11/26 07:21:19;;;;;;;3.07;2.53;;;6.50;99.90;;;;;;6155960;23;20409;-74
2022/11/26 07:23:47;;;;;;;2.40;2.30;;;6.50;99.90;;;;;;6156457;23;20401;-74
2022/11/26 07:26:17;;;;;;;0.70;0.67;;;6.50;99.90;;;;;;6155702;23;20432;-76
2022/11/26 07:28:46;;;;;;;0.50;0.10;;;6.50;99.90;;;;;;6156913;23;20410;-74
2022/11/26 07:31:16;;;;;;;0.50;0.10;;;6.50;99.90;;;;;;6156364;23;20412;-74
2022/11/26 07:33:44;;;;;;;0.50;0.10;;;6.50;99.90;;;;;;6155808;23;20441;-74
2022/11/26 07:36:16;;;;;;;0.50;0.10;;;6.60;99.90;;;;;;6156654;23;20424;-75
2022/11/26 07:38:45;;;;;;;0.50;0.10;;;6.60;99.90;;;;;;6156685;23;20405;-74
2022/11/26 07:41:15;;;;;;;0.50;0.10;;;6.70;99.90;;;;;;6156353;23;20460;-76
2022/11/26 07:43:44;;;;;;;0.50;0.10;;;6.70;99.90;;;;;;6155589;23;20452;-74
2022/11/26 07:46:15;;;;;;;0.50;0.10;;;6.70;99.90;;;;;;6155325;23;20479;-75
2022/11/26 07:48:44;;;;;;;0.50;0.10;;;6.70;99.90;;;;;;6155513;23;20424;-74
2022/11/26 07:51:17;;;;;;;0.50;0.10;;;6.70;99.90;;;;;;6156273;23;20404;-74
2022/11/26 07:53:46;;;;;;;0.50;0.10;;;6.80;99.90;;;;;;6155828;23;20433;-76
2022/11/26 07:56:14;;;;;;;0.70;0.40;;;6.80;99.90;;;;;;6155330;23;20437;-75
2022/11/26 07:58:42;;;;;;;0.70;0.50;;;6.80;99.90;;;;;;6156106;23;20405;-76
2022/11/26 08:01:12;;;;;;;0.50;0.30;;;6.80;99.90;;;;;;6156151;23;20414;-76
2022/11/26 08:03:42;;;;;;;0.50;0.10;;;6.80;99.90;;;;;;6154837;23;20851;-75
2022/11/26 08:06:12;;;;;;;0.60;0.40;;;6.90;99.90;;;;;;6156685;23;20537;-73
2022/11/26 08:08:40;;;;;;;0.50;0.10;;;6.80;99.90;;;;;;6158695;23;20411;-73
2022/11/26 08:11:15;;;;;;;0.50;0.10;;;6.80;99.90;;;;;;6157502;23;20397;-73
2022/11/26 08:13:43;;;;;;;0.50;0.10;;;6.80;99.90;;;;;;6155715;23;20397;-76
2022/11/26 08:16:12;;;;;;;0.50;0.20;;;6.80;99.90;;;;;;6156200;23;21018;-75
2022/11/26 08:18:40;;;;;;;4.97;4.63;;;6.80;99.90;;;;;;6155858;23;20421;-75
2022/11/26 08:21:08;;;;;;;0.50;0.10;;;6.80;99.90;;;;;;6156281;23;20520;-74
2022/11/26 08:23:36;;;;;;;4.93;4.17;;;6.90;99.90;;;;;;6157939;23;20467;-75
2022/11/26 08:26:09;;;;;;;10.93;7.43;;;6.90;99.90;;;;;;6157441;23;20483;-73
2022/11/26 08:28:59;;;;;;;0.50;0.10;;;6.90;99.90;;;;;;6158446;23;20405;-74
2022/11/26 08:31:27;;;;;;;0.50;0.20;;;7.00;99.90;;;;;;6159541;23;20382;-76
2022/11/26 08:33:57;;;;;;;0.50;0.17;;;7.00;99.90;;;;;;6157272;23;22377;-76
2022/11/26 08:36:25;;;;;;;0.50;0.17;;;7.10;99.90;;;;;;6155644;23;20428;-76
2022/11/26 08:38:53;;;;;;;0.50;0.10;;;7.10;99.90;;;;;;6155623;23;20409;-75
2022/11/26 08:41:21;;;;;;;0.50;0.10;;;7.10;99.90;;;;;;6159233;23;20405;-74
2022/11/26 08:43:50;;;;;;;0.50;0.10;;;7.20;99.90;;;;;;6155696;23;20432;-74
2022/11/26 08:46:35;;;;;;;0.50;0.10;;;7.20;99.90;;;;;;6157814;23;20425;-76
2022/11/26 08:49:03;;;;;;;0.50;0.10;;;7.30;99.90;;;;;;6157050;23;20405;-75
2022/11/26 08:51:31;;;;;;;0.50;0.10;;;7.30;99.90;;;;;;6158354;23;20753;-75
2022/11/26 08:53:59;;;;;;;0.50;0.10;;;7.40;99.90;;;;;;6159213;23;20968;-76
2022/11/26 08:56:27;;;;;;;0.50;0.10;;;7.40;99.90;;;;;;6165990;23;20425;-73
2022/11/26 08:58:55;;;;;;;0.50;0.10;;;7.50;99.90;;;;;;6158225;23;20413;-76
2022/11/26 09:01:25;;;;;;;0.50;0.10;;;7.50;99.90;;;;;;6160817;23;20405;-76
2022/11/26 09:03:56;;;;;;;0.50;0.10;;;7.60;99.90;;;;;;6159834;23;20405;-76
2022/11/26 09:06:25;;;;;;;1.10;0.73;;;;;;;;;;6159452;23;20440;-76
2022/11/26 09:11:40;;;;;;;5.80;1.73;;;7.60;99.90;;;;;;6157434;23;20405;-74
2022/11/26 09:14:09;;;;;;;0.50;0.10;;;7.60;99.90;;;;;;6155194;23;20408;-77
2022/11/26 09:16:37;;;;;;;0.60;0.60;;;7.60;99.90;;;;;;6156980;23;20444;-76
2022/11/26 09:19:07;;;;;;;0.50;0.10;;;7.60;99.90;;;;;;6158473;23;20424;-76
2022/11/26 09:21:35;;;;;;;0.50;0.10;;;7.60;99.90;;;;;;6157965;23;20405;-76
2022/11/26 09:24:04;;;;;;;1.10;0.50;;;;;;;;;;6157764;23;20414;-76
2022/11/26 09:26:32;;;;;;;0.53;0.17;;;7.80;99.90;;;;;;6156242;23;20425;-75
2022/11/26 09:29:01;;;;;;;0.50;0.30;;;7.80;99.90;;;;;;6155394;23;20415;-75
2022/11/26 09:31:29;;;;;;;0.50;0.20;;;7.80;99.90;;;;;;6155218;23;20416;-76
2022/11/26 09:33:58;;;;;;;0.60;0.40;;;7.80;99.90;;;;;;6154757;23;20886;-75
2022/11/26 09:36:27;;;;;;;0.50;0.10;;;7.80;99.90;;;;;;6155600;23;20456;-76
2022/11/26 09:38:56;;;;;;;0.60;0.20;;;7.80;99.90;;;;;;6158211;23;20409;-75
2022/11/26 09:41:37;;;;;;;1.40;1.30;;;7.70;99.90;;;;;;6156225;23;20417;-75
2022/11/26 09:44:23;;;;;;;0.50;0.13;;;7.80;99.90;;;;;;6155520;23;20385;-76
2022/11/26 09:47:09;;;;;;;2.87;0.53;;;7.70;99.90;;;;;;6154561;23;20421;-73
2022/11/26 09:49:53;;;;;;;0.50;0.10;;;7.80;99.90;;;;;;6156133;23;20388;-74
2022/11/26 09:55:15;;;;;;;0.53;0.20;;;8.00;99.90;;;;;;6149288;23;20463;-75
2022/11/26 09:57:46;;;;;;;0.50;0.20;;;8.10;99.90;;;;;;6156234;23;20386;-74
2022/11/26 10:00:26;;;;;;;0.50;0.10;;;8.10;99.90;;;;;;6159168;23;20412;-76
2022/11/26 10:02:55;;;;;;;0.50;0.10;;;8.10;99.90;;;;;;6157166;23;20405;-75
2022/11/26 10:05:30;;;;;;;0.50;0.10;;;8.30;99.90;;;;;;6158184;23;20425;-76
2022/11/26 10:08:09;;;;;;;0.50;0.10;;;8.30;99.90;;;;;;6155193;23;20392;-73
2022/11/26 10:10:48;;;;;;;0.50;0.10;;;8.50;99.90;;;;;;6159569;23;20463;-76
2022/11/26 10:13:22;;;;;;;0.50;0.10;;;8.60;99.90;;;;;;6159786;23;20397;-76
2022/11/26 10:16:00;;;;;;;0.50;0.10;;;8.80;99.90;;;;;;6160478;23;20447;-76
2022/11/26 10:18:38;;;;;;;0.50;0.10;;;8.90;99.90;;;;;;6159708;23;20416;-75
2022/11/26 10:21:19;;;;;;;0.50;0.10;;;9.00;99.90;;;;;;6158402;23;20411;-76
2022/11/26 10:24:04;;;;;;;0.50;0.10;;;9.10;93.80;;;;;;6157567;23;20717;-77
2022/11/26 10:26:35;;;;;;;0.50;0.20;;;9.10;92.60;;;;;;6156954;23;20475;-74
2022/11/26 10:29:17;;;;;;;0.50;0.10;;;9.10;75.40;;;;;;6158758;23;20448;-76
2022/11/26 10:31:47;;;;;;;0.50;0.10;;;9.00;75.90;;;;;;6158464;23;20397;-75
2022/11/26 10:34:18;;;;;;;0.50;0.10;;;9.00;66.10;;;;;;6157834;23;20495;-76
2022/11/26 10:36:48;;;;;;;0.50;0.10;;;9.00;68.20;;;;;;6157889;23;20445;-75
2022/11/26 10:39:19;;;;;;;0.50;0.10;;;9.10;65.00;;;;;;6158163;23;20909;-75
2022/11/26 10:41:48;;;;;;;0.50;0.10;;;9.10;69.20;;;;;;6157291;23;20405;-76
2022/11/26 10:44:30;;;;;;;0.50;0.10;;;9.20;62.30;;;;;;6157673;23;20472;-75
2022/11/26 10:47:00;;;;;;;0.50;0.10;;;9.10;61.20;;;;;;6154584;23;20374;-76
2022/11/26 10:49:29;;;;;;;0.70;0.70;;;9.10;55.00;;;;;;6156898;23;20409;-74
2022/11/26 10:52:01;;;;;;;0.50;0.10;;;9.10;61.70;;;;;;6156780;23;20796;-76
2022/11/26 10:54:33;;;;;;;0.50;0.10;;;9.10;58.30;;;;;;6159023;23;20411;-72
2022/11/26 10:57:06;;;;;;;0.50;0.10;;;9.10;58.70;;;;;;6158469;23;20429;-74
2022/11/26 10:59:39;;;;;;;0.50;0.10;;;9.10;69.40;;;;;;6157199;23;20778;-75
2022/11/26 11:02:26;;;;;;;0.50;0.10;;;9.20;68.40;;;;;;6156213;23;20408;-75
2022/11/26 11:04:56;;;;;;;5.13;4.93;;;9.30;73.80;;;;;;6156077;23;20431;-76
2022/11/26 11:07:41;;;;;;;0.50;0.10;;;9.30;81.60;;;;;;6156416;23;20405;-75
2022/11/26 11:10:18;;;;;;;2.03;1.17;;;9.40;82.00;;;;;;6156772;23;20436;-76
2022/11/26 11:12:49;;;;;;;0.50;0.10;;;9.50;78.90;;;;;;6154560;23;20389;-73
2022/11/26 11:15:23;;;;;;;0.70;0.67;;;9.60;64.10;;;;;;6153039;23;20448;-71
2022/11/26 11:17:57;;;;;;;7.50;4.30;;;9.70;68.90;;;;;;6155091;23;20409;-73
2022/11/26 11:20:29;;;;;;;0.50;0.20;;;9.80;63.90;;;;;;6155123;23;20930;-74
2022/11/26 11:23:04;;;;;;;0.50;0.10;;;9.90;59.70;;;;;;6154815;23;20454;-73
2022/11/26 11:25:35;;;;;;;0.50;0.10;;;10.10;40.20;;;;;;6155148;23;20425;-72
2022/11/26 11:28:18;;;;;;;0.50;0.10;;;10.10;39.20;;;;;;6155759;23;20842;-72
2022/11/26 11:30:47;;;;;;;0.50;0.10;;;10.00;25.60;;;;;;6156193;23;21000;-71
2022/11/26 11:33:23;;;;;;;0.50;0.10;;;10.00;18.40;;;;;;6156105;23;20688;-73
2022/11/26 11:36:06;;;;;;;0.50;0.10;;;9.90;14.80;;;;;;6156125;23;20452;-73
2022/11/26 11:38:46;;;;;;;0.60;0.43;;;9.90;20.30;;;;;;6156332;23;20381;-70
2022/11/26 11:41:30;;;;;;;0.50;0.10;;;9.80;20.50;;;;;;6156603;23;20404;-72
2022/11/26 11:44:06;;;;;;;0.50;0.10;;;9.80;23.90;;;;;;6156583;23;20412;-71
2022/11/26 11:46:58;;;;;;;0.50;0.10;;;9.80;24.30;;;;;;6156967;23;20471;-72
2022/11/26 11:49:46;;;;;;;0.50;0.10;;;9.90;24.30;;;;;;6140918;23;21078;-71
2022/11/26 11:52:23;;;;;;;0.50;0.10;;;9.90;23.10;;;;;;6155620;23;20390;-72
2022/11/26 11:55:01;;;;;;;0.50;0.10;;;10.00;23.60;;;;;;6155863;23;20425;-71
2022/11/26 11:57:48;;;;;;;0.50;0.10;;;10.00;24.10;;;;;;6155988;23;20424;-74
2022/11/26 12:00:18;;;;;;;0.50;0.10;;;10.00;24.40;;;;;;6156578;23;20405;-72
2022/11/26 12:03:21;;;;;;;0.50;0.20;;;10.20;23.00;;;;;;6156450;23;20390;-72
2022/11/26 12:06:04;;;;;;;0.50;0.10;;;10.30;15.60;;;;;;6154709;23;20419;-73
2022/11/26 12:08:46;;;;;;;0.50;0.10;;;10.40;14.30;;;;;;6156667;23;20385;-72
2022/11/26 12:11:28;;;;;;;0.50;0.10;;;10.40;8.20;;;;;;6154532;23;20405;-74
2022/11/26 12:14:00;;;;;;;0.50;0.10;;;10.50;1.00;;;;;;6155898;23;20386;-72
2022/11/26 12:16:35;;;;;;;0.50;0.10;;;10.50;1.00;;;;;;6155251;23;20449;-71
2022/11/26 12:19:06;;;;;;;0.50;0.10;;;10.50;1.00;;;;;;6156225;23;20463;-71
2022/11/26 12:21:39;;;;;;;0.50;0.10;;;10.50;1.00;;;;;;6155669;23;20413;-72
2022/11/26 12:24:13;;;;;;;0.50;0.10;;;10.40;1.00;;;;;;6155704;23;20386;-72
2022/11/26 12:26:46;;;;;;;0.80;0.33;;;10.30;1.00;;;;;;6155244;23;20425;-69
2022/11/26 12:29:22;;;;;;;0.50;0.30;;;10.20;1.00;;;;;;6155881;23;20944;-71
2022/11/26 12:31:54;;;;;;;0.50;0.20;;;10.00;1.00;;;;;;6156473;23;20409;-72
2022/11/26 12:34:27;;;;;;;0.50;0.10;;;10.00;1.00;;;;;;6154670;23;21006;-73
2022/11/26 12:37:00;;;;;;;0.50;0.10;;;10.00;1.00;;;;;;6154303;23;20425;-71
2022/11/26 12:39:36;;;;;;;0.50;0.20;;;9.90;1.00;;;;;;6156980;23;20492;-72
2022/11/26 12:42:11;;;;;;;0.50;0.10;;;10.00;1.00;;;;;;6155063;23;20420;-75
2022/11/26 12:44:43;;;;;;;4.33;4.03;;;10.10;1.00;;;;;;6156861;23;20401;-73
2022/11/26 12:47:20;;;;;;;1.33;1.23;;;10.00;1.00;;;;;;6156786;23;20382;-72
2022/11/26 12:50:12;;;;;;;2.20;0.73;;;10.00;1.00;;;;;;6156551;23;20412;-73
2022/11/26 12:52:47;;;;;;;0.60;0.10;;;10.00;1.00;;;;;;6155753;23;20425;-72
2022/11/26 12:55:19;;;;;;;0.50;0.30;;;;;;;;;;6156253;23;20432;-74
2022/11/26 12:57:52;;;;;;;0.60;0.40;;;9.70;1.00;;;;;;6155923;23;20451;-71
2022/11/26 13:00:25;;;;;;;1.13;0.83;;;9.60;1.00;;;;;;6155642;23;20446;-71
2022/11/26 13:02:59;;;;;;;0.50;0.10;;;9.50;1.00;;;;;;6155624;23;20392;-74
2022/11/26 13:05:34;;;;;;;0.67;0.40;;;9.40;7.60;;;;;;6156320;23;20425;-72
2022/11/26 13:08:26;;;;;;;0.50;0.10;;;9.40;12.70;;;;;;6156650;23;20850;-74
2022/11/26 13:11:18;;;;;;;0.50;0.20;;;9.50;12.40;;;;;;6155278;23;20409;-72
2022/11/26 13:13:53;;;;;;;1.03;1.03;;;9.40;13.30;;;;;;6154826;23;20416;-72
2022/11/26 13:16:33;;;;;;;0.50;0.10;;;9.40;10.60;;;;;;6153972;23;20455;-73
2022/11/26 13:19:07;;;;;;;11.63;5.10;;;9.40;8.40;;;;;;6154950;23;20487;-77
2022/11/26 13:21:51;;;;;;;0.50;0.10;;;9.30;8.30;;;;;;6154404;23;20436;-70
2022/11/26 13:24:43;;;;;;;0.50;0.20;;;8.90;12.70;;;;;;6153785;23;20381;-71
2022/11/26 13:27:35;;;;;;;0.60;0.30;;;8.90;17.60;;;;;;6153873;23;20772;-72
2022/11/26 13:30:20;;;;;;;1.50;1.30;;;8.80;19.00;;;;;;6153647;23;20405;-74
2022/11/26 13:33:28;;;;;;;3.70;2.67;;;8.50;35.50;;;;;;6154359;23;20405;-72
2022/11/26 13:36:35;;;;;;;1.13;1.03;;;8.20;46.70;;;;;;6153678;23;20435;-70
2022/11/26 13:39:23;;;;;;;1.67;0.93;;;8.40;93.20;;;;;;6154236;23;20401;-71
2022/11/26 13:42:14;;;;;;;0.50;0.10;;;8.40;97.40;;;;;;6153888;23;20405;-71
2022/11/26 13:45:02;;;;;;;0.50;0.17;;;8.30;92.00;;;;;;6154473;23;20766;-70
2022/11/26 13:47:33;;;;;;;5.00;3.27;;;8.30;95.40;;;;;;6156200;23;20721;-74
2022/11/26 13:50:08;;;;;;;0.60;0.40;;;8.30;89.40;;;;;;6156033;23;20435;-72
2022/11/26 13:52:40;;;;;;;1.00;0.73;;;8.00;75.60;;;;;;6156699;23;20737;-72
2022/11/26 13:55:12;;;;;;;0.60;0.30;;;7.90;85.40;;;;;;6156215;23;20947;-71
2022/11/26 13:57:45;;;;;;;0.60;0.30;;;7.90;91.10;;;;;;6156800;23;20485;-74
2022/11/26 14:00:24;;;;;;;0.50;0.20;;;7.80;92.50;;;;;;6156675;23;20405;-74
2022/11/26 14:02:52;;;;;;;0.50;0.10;;;7.90;98.50;;;;;;6156259;23;20393;-74
2022/11/26 14:05:22;;;;;;;0.50;0.20;;;7.90;99.90;;;;;;6156458;23;21012;-73
2022/11/26 14:07:50;;;;;;;0.50;0.10;;;8.00;99.90;;;;;;6156445;23;20392;-73
2022/11/26 14:10:43;;;;;;;0.50;0.10;;;8.00;99.90;;;;;;6156714;23;20409;-74
2022/11/26 14:13:15;;;;;;;0.60;0.40;;;8.10;99.90;;;;;;6157331;23;20405;-71
2022/11/26 14:15:55;;;;;;;0.50;0.10;;;8.10;99.90;;;;;;6157160;23;20440;-72
2022/11/26 14:19:05;;;;;;;0.80;0.50;;;8.20;99.90;;;;;;6156662;23;20948;-70
2022/11/26 14:21:58;;;;;;;0.50;0.20;;;8.10;99.90;;;;;;6156284;23;20404;-74
2022/11/26 14:24:55;;;;;;;0.87;0.30;;;8.10;99.90;;;;;;6156298;23;20417;-73
2022/11/26 14:27:24;;;;;;;0.50;0.10;;;8.10;99.90;;;;;;6156322;23;20897;-73
2022/11/26 14:29:57;;;;;;;0.80;0.30;;;8.00;99.90;;;;;;6157265;23;20459;-72
2022/11/26 14:32:26;;;;;;;2.00;1.90;;;8.00;99.90;;;;;;6156689;23;20465;-71
2022/11/26 14:34:56;;;;;;;1.80;1.70;;;7.80;98.80;;;;;;6156311;23;21007;-72
2022/11/26 14:37:27;;;;;;;0.50;0.10;;;7.60;99.90;;;;;;6156711;23;20441;-72
2022/11/26 14:39:59;;;;;;;0.50;0.10;;;7.60;99.90;;;;;;6156999;23;20732;-74
2022/11/26 14:42:28;;;;;;;3.53;0.90;;;7.60;99.90;;;;;;6156409;23;20432;-71
2022/11/26 14:45:03;;;;;;;0.50;0.10;;;7.60;99.90;;;;;;6157525;23;20436;-71
2022/11/26 14:47:32;;;;;;;0.70;0.27;;;7.60;99.90;;;;;;6160277;23;20405;-72
2022/11/26 14:50:03;;;;;;;0.60;0.40;;;7.60;99.90;;;;;;6159950;23;20428;-73
2022/11/26 14:52:34;;;;;;;1.43;0.60;;;7.60;99.90;;;;;;6157104;23;20467;-72
2022/11/26 14:55:05;;;;;;;0.60;0.30;;;7.50;99.90;;;;;;6156540;23;20421;-71
2022/11/26 14:57:41;;;;;;;2.80;1.33;;;7.60;99.90;;;;;;6155514;23;20441;-72
2022/11/26 15:00:22;;;;;;;0.50;0.27;;;7.60;99.90;;;;;;6156577;23;20480;-72
2022/11/26 15:02:51;;;;;;;0.50;0.10;;;7.70;99.90;;;;;;6154807;23;20405;-77
2022/11/26 15:05:22;;;;;;;0.57;0.37;;;7.80;99.90;;;;;;6157111;23;20432;-76
2022/11/26 15:07:59;;;;;;;0.50;0.10;;;7.80;99.90;;;;;;6156313;23;20401;-75
2022/11/26 15:10:31;;;;;;;0.50;0.20;;;7.80;99.90;;;;;;6156663;23;20865;-76
2022/11/26 15:13:04;;;;;;;0.50;0.20;;;7.80;99.90;;;;;;6157241;23;20409;-75
2022/11/26 15:15:32;;;;;;;0.50;0.10;;;7.80;99.90;;;;;;6155825;23;20460;-78
2022/11/26 15:18:05;;;;;;;2.37;2.27;;;7.90;99.90;;;;;;6155930;23;20483;-77
2022/11/26 15:20:33;;;;;;;1.00;0.67;;;7.80;99.90;;;;;;6156676;23;20791;-76
2022/11/26 15:23:05;;;;;;;0.50;0.10;;;7.80;99.90;;;;;;6155968;23;20405;-75
2022/11/26 15:25:36;;;;;;;0.50;0.30;;;7.80;99.90;;;;;;6156634;23;20425;-74
2022/11/26 15:28:05;;;;;;;0.53;0.30;;;7.90;99.90;;;;;;6156462;23;20460;-75
2022/11/26 15:30:35;;;;;;;0.50;0.20;;;7.90;99.90;;;;;;6157670;23;20401;-76
2022/11/26 15:33:10;;;;;;;0.50;0.10;;;7.80;99.90;;;;;;6155374;23;20468;-75
2022/11/26 15:35:39;;;;;;;0.50;0.10;;;7.80;99.90;;;;;;6155259;23;20463;-74
2022/11/26 15:38:12;;;;;;;0.50;0.10;;;7.80;99.90;;;;;;6156330;23;20440;-76
2022/11/26 15:40:46;;;;;;;0.50;0.10;;;7.80;99.90;;;;;;6157445;23;20452;-76
2022/11/26 15:43:22;;;;;;;0.50;0.10;;;7.90;99.90;;;;;;6155656;23;20390;-75
2022/11/26 15:45:51;;;;;;;0.70;0.67;;;8.00;99.90;;;;;;6155742;23;20424;-75
2022/11/26 15:48:22;;;;;;;0.50;0.10;;;8.00;99.90;;;;;;6154552;23;20400;-76
2022/11/26 15:50:59;;;;;;;0.50;0.10;;;8.10;99.90;;;;;;6157129;23;20393;-73
2022/11/26 15:53:32;;;;;;;20.33;3.50;;;8.10;99.90;;;;;;6156057;23;20610;-74
2022/11/26 15:56:01;;;;;;;0.50;0.10;;;8.10;99.90;;;;;;6154714;23;20429;-75
2022/11/26 15:58:33;;;;;;;0.50;0.10;;;8.20;99.90;;;;;;6156764;23;20444;-76
2022/11/26 16:01:03;;;;;;;0.60;0.20;;;8.10;99.60;;;;;;6157093;23;20512;-74
2022/11/26 16:03:42;;;;;;;11.30;10.03;;;8.30;97.90;;;;;;6157044;23;20634;-75
2022/11/26 16:06:31;;;;;;;4.10;1.30;;;8.30;95.40;;;;;;6151446;23;20814;-74
2022/11/26 16:09:21;;;;;;;0.80;0.30;;;8.30;92.80;;;;;;6157863;23;20444;-76
2022/11/26 16:11:59;;;;;;;0.50;0.10;;;8.20;85.50;;;;;;6155818;23;20417;-75
2022/11/26 16:14:29;;;;;;;0.50;0.10;;;;;;;;;;6157580;23;20844;-78
2022/11/26 16:16:58;;;;;;;0.50;0.10;;;8.20;72.80;;;;;;6158449;23;20404;-74
2022/11/26 16:19:33;;;;;;;1.03;0.93;;;8.20;79.30;;;;;;6158374;23;20525;-74
2022/11/26 16:22:03;;;;;;;1.57;1.47;;;8.20;81.20;;;;;;6157621;23;20467;-75
2022/11/26 16:24:37;;;;;;;0.70;0.40;;;8.10;73.50;;;;;;6157303;23;20427;-76
2022/11/26 16:27:23;;;;;;;0.50;0.40;;;8.10;80.60;;;;;;6158978;23;20424;-74
2022/11/26 16:29:51;;;;;;;0.50;0.10;;;8.10;80.80;;;;;;6162003;23;20386;-75
2022/11/26 16:32:19;;;;;;;0.80;0.67;;;8.10;84.20;;;;;;6160916;23;20401;-75
2022/11/26 16:34:47;;;;;;;0.50;0.10;;;8.10;74.60;;;;;;6156859;23;20917;-75
2022/11/26 16:37:20;;;;;;;0.50;0.10;;;8.10;82.50;;;;;;6156017;23;20778;-75
2022/11/26 16:39:51;;;;;;;2.87;0.40;;;8.20;71.00;;;;;;6155845;23;20441;-73
2022/11/26 16:42:20;;;;;;;0.50;0.20;;;8.10;58.10;;;;;;6155612;23;20381;-74
2022/11/26 16:44:48;;;;;;;0.50;0.10;;;8.10;54.00;;;;;;6153336;23;20407;-74
2022/11/26 16:47:19;;;;;;;0.50;0.17;;;;;;;;;;6155099;23;20496;-74
2022/11/26 16:49:48;;;;;;;0.70;0.50;;;8.00;47.40;;;;;;6154695;23;20405;-74
2022/11/26 16:52:17;;;;;;;1.00;0.90;;;8.00;56.40;;;;;;6154930;23;20909;-77
2022/11/26 16:54:45;;;;;;;0.50;0.10;;;8.00;50.20;;;;;;6155687;23;20408;-75
2022/11/26 16:57:17;;;;;;;0.50;0.10;;;7.90;56.80;;;;;;6155444;23;20734;-76
2022/11/26 16:59:49;;;;;;;0.50;0.10;;;7.90;60.90;;;;;;6156393;23;20752;-77
2022/11/26 17:02:19;;;;;;;0.50;0.10;;;8.00;66.70;;;;;;6156166;23;20406;-77
2022/11/26 17:04:47;;;;;;;0.50;0.20;;;8.20;66.40;;;;;;6155496;23;20389;-75
2022/11/26 17:07:18;;;;;;;1.60;1.50;;;8.10;73.70;;;;;;6155689;23;20468;-75
2022/11/26 17:09:46;;;;;;;0.50;0.10;;;8.20;70.70;;;;;;6154740;23;20460;-76
2022/11/26 17:12:18;;;;;;;0.50;0.33;;;8.20;69.60;;;;;;6154448;23;21058;-76
2022/11/26 17:14:47;;;;;;;0.50;0.10;;;8.30;61.30;;;;;;6153616;23;20508;-76
2022/11/26 17:17:16;;;;;;;0.50;0.10;;;8.30;60.60;;;;;;6156051;23;20385;-75
2022/11/26 17:19:50;;;;;;;0.50;0.10;;;8.40;57.70;;;;;;6156296;23;20516;-77
2022/11/26 17:22:19;;;;;;;2.50;0.67;;;8.40;61.90;;;;;;6158038;23;20447;-79
2022/11/26 17:24:46;;;;;;;0.50;0.10;;;8.40;48.60;;;;;;6156632;23;20772;-76
2022/11/26 17:27:18;;;;;;;0.50;0.30;;;8.40;54.80;;;;;;6156800;23;20428;-77
2022/11/26 17:29:47;;;;;;;0.50;0.10;;;8.40;55.10;;;;;;6155955;23;20405;-75
2022/11/26 17:32:18;;;;;;;0.50;0.10;;;8.40;52.90;;;;;;6155336;23;20420;-74
2022/11/26 17:34:46;;;;;;;0.50;0.10;;;8.40;45.60;;;;;;6154956;23;20405;-75
2022/11/26 17:37:17;;;;;;;0.50;0.10;;;8.40;51.60;;;;;;6156086;23;20882;-74